Pagrindinis puslapis
METAR-TAF:

METAR-TAF

Oro uostai :

Antakija, Turkija

platuma: 36-21-46N, ilguma: 36-16-56E, Aukštis: 1950 m

Dabartinis oras

Ataskaita buvo paskelbta 35 minutes, ne 19:50 UTC
Vėjas 2 kt nuo kintamojo kryptimis
Temperatūra 9°C
Drėgmė 100%
Slėgis 1021 hPa
Matomumas 10 km arba daugiau
Išsisklaidę debesys ne aukštis 3000 ft
Su prošvaistėmis ne aukštis 9000 ft
lietus

METAR: LTDA 021950Z VRB02KT 9999 -SHRA SCT030 BKN090 09/09 Q1021 NOSIG

Laikas: 23:25 (20:25 UTC)

Prognozė

Ataskaita buvo paskelbta 3 valandos ir 45 minutes, ne 16:40 UTC
Prognozė galioja nuo 02 metu 18 UTC su 03 metu 03 UTC
Vėjas 2 kt nuo kintamojo kryptimis
Matomumas 10 km arba daugiau
Išsisklaidę debesys ne aukštis 3000 ft
Su prošvaistėmis ne aukštis 9000 ft
Laikinai
nuo 02 metu 21 UTC su 02 metu 24 UTC
lietus

TAF: LTDA 021640Z 0218/0303 VRB02KT 9999 SCT030 BKN090 TEMPO 0221/0224 -SHRA

Orai ataskaitas ir orų prognozės (METAR, TAF).

turimą stotys yra geltonos ir raudonos taškus žemėlapyje.

Perkelti pele per norėdami pamatyti stoties vardą.

Tada spustelėkite, norėdami matyti oro stebėjimo ir prognozės.

Norėdami pakeisti žemėlapį: spustelėkite ant žalios mygtukų su juodo kryžiaus žemyn,; žalią mygtuką su brūkšneliu, jei norite nutolinti; arba žalių rodyklių gretimoms žemėlapius.


METAR-TAF: